• Join FlightAware (Why Join?)
  • Login
  • US Flag 
07:49PM EDT


 

Airport Tracker/Info


-or-


 

Live Flight TrackerFlight Track Log ✈ NKS904 ✈ 04-May-2013 ✈ KDFW - KMCO

Flight Track Log - Related Links

Times and Time Zones

All times are in EDT time to prevent confusion due to time zone crossing. See the NKS904 flight status page for this flight to view local times or setup timezone preferences in your user account.

Time Position Orientation Groundspeed Altitude Reporting Facility
EDT Latitude Longitude Course Direction KTS MPH feet Rate Location/Type
12:38PM 32.9300 -97.0290 North 171 197 2,200  Level FlightAware
12:39PM 32.9520 -97.0240 11° North 211 243 2,600 1,800 Climbing FlightAware
12:39PM 32.9830 -97.0120 18° North 245 282 3,900 3,000 Climbing FlightAware
12:40PM 33.0080 -96.9960 28° Northeast 251 289 5,400 3,300 Climbing FlightAware
12:40PM 33.0160 -96.9800 59° Northeast 265 305 6,100 3,120 Climbing FlightAware
12:40PM 33.0190 -96.9640 77° East 275 316 6,700 3,180 Climbing FlightAware
12:40PM 33.0160 -96.9310 96° East 295 339 7,700 2,700 Climbing FlightAware
12:41PM 33.0140 -96.9070 96° East 306 352 8,300 2,520 Climbing FlightAware
12:41PM 33.0030 -96.8630 107° East 326 375 9,400 1,800 Climbing FlightAware
12:42PM 32.9900 -96.8100 106° East 335 386 10,000 1,080 Climbing FlightAware
12:42PM 32.9700 -96.7340 107° East 390 449 10,700 1,800 Climbing FlightAware
12:43PM 32.9460 -96.6420 107° East 406 467 12,600 2,400 Climbing FlightAware
12:44PM 32.9230 -96.5540 107° East 423 487 14,100 2,280 Climbing FlightAware
12:44PM 32.8980 -96.4590 107° East 436 502 15,700 2,280 Climbing FlightAware
12:45PM 32.8710 -96.3560 107° East 447 514 17,400 2,100 Climbing FlightAware
12:46PM 32.8660 -96.2580 93° East 448 516 18,700 1,860 Climbing FlightAware
12:47PM 32.8690 -96.1450 88° East 461 531 20,100 1,740 Climbing FlightAware
12:47PM 32.8710 -96.0420 89° East 473 544 21,200 1,920 Climbing FlightAware
12:48PM 32.8730 -95.9280 89° East 471 542 22,900 1,680 Climbing FlightAware
12:49PM 32.8740 -95.8360 89° East 485 558 23,500 1,080 Climbing FlightAware
12:49PM 32.8760 -95.7150 89° East 500 575 24,400 1,320 Climbing FlightAware
12:50PM 32.8771 -95.6327 89° East 505 581 25,100 1,440 Climbing FlightAware ADS-B
12:50PM 32.8783 -95.5386 89° East 507 583 25,900 1,380 Climbing FlightAware ADS-B
12:51PM 32.8800 -95.4024 89° East 514 592 27,000 1,320 Climbing FlightAware ADS-B
12:52PM 32.8850 -95.3365 85° East 515 593 27,500 1,260 Climbing FlightAware ADS-B
12:52PM 32.8985 -95.2501 79° East 517 595 28,200 1,140 Climbing FlightAware ADS-B
12:53PM 32.9143 -95.1479 80° East 524 603 28,800 960 Climbing FlightAware ADS-B
12:53PM 32.9293 -95.0487 80° East 526 605 29,400 960 Climbing FlightAware ADS-B
12:54PM 32.9498 -94.9131 80° East 540 621 30,100 1,020 Climbing FlightAware ADS-B
12:55PM 32.9652 -94.8098 80° East 545 627 30,800 1,320 Climbing FlightAware ADS-B
12:55PM 32.9791 -94.7160 80° East 542 624 31,600 1,440 Climbing FlightAware ADS-B
12:56PM 32.9935 -94.6188 80° East 537 618 32,400 1,140 Climbing FlightAware ADS-B
12:56PM 33.0078 -94.5220 80° East 539 620 32,900 1,080 Climbing FlightAware ADS-B
12:57PM 33.0218 -94.4274 80° East 538 619 33,600 1,200 Climbing FlightAware ADS-B
12:57PM 33.0346 -94.3390 80° East 536 617 34,200 840 Climbing FlightAware ADS-B
12:58PM 33.0650 -94.1330 80° East 543 625 35,100 480 Climbing FlightAware
12:59PM 33.0780 -94.0440 80° East 543 625 35,100  Level FlightAware
01:00PM 33.0930 -93.9430 80° East 543 625 35,100  Level FlightAware
01:00PM 33.1070 -93.8430 80° East 543 625 35,100  Level FlightAware
01:01PM 33.1260 -93.7170 80° East 543 625 35,100  Level FlightAware
01:02PM 33.1410 -93.6170 80° East 543 625 35,100 2,040 Level FlightAware
01:02PM 32.9934 -93.4805 142° Southeast 545 627 37,000 2,220 Climbing FlightAware ADS-B
01:03PM 32.9759 -93.3791 102° East 543 625 37,000  Level FlightAware ADS-B
01:03PM 32.9601 -93.2882 102° East 544 626 37,000  Level FlightAware ADS-B
01:04PM 32.9446 -93.1989 102° East 540 621 37,000 60 Level FlightAware ADS-B
01:04PM 32.9280 -93.1042 102° East 537 618 37,100  Climbing FlightAware ADS-B
01:05PM 32.9114 -93.0098 102° East 535 616 37,000 -120 Descending FlightAware ADS-B
01:06PM 32.8919 -92.8911 102° East 539 620 37,000  Level Fort Worth Center
01:07PM 32.8628 -92.7194 101° East 539 620 37,000  Level Fort Worth Center
01:08PM 32.8353 -92.5506 101° East 534 615 37,000  Level Fort Worth Center
01:09PM 32.8036 -92.3817 103° East 534 615 37,000  Level Fort Worth Center
01:10PM 32.7717 -92.2131 103° East 528 608 37,000  Level Fort Worth Center
01:12PM 32.7028 -91.8458 102° East 509 586 37,000  Level Memphis Center
01:13PM 32.6672 -91.6775 104° East 514 592 37,000  Level Memphis Center
01:14PM 32.6375 -91.5094 102° East 514 592 37,000  Level Memphis Center
01:15PM 32.6056 -91.3414 103° East 514 592 37,000  Level Memphis Center
01:16PM 32.5711 -91.1733 104° East 514 592 37,000  Level Memphis Center
01:17PM 32.5408 -91.0031 102° East 519 597 37,000  Level Memphis Center
01:18PM 32.5019 -90.8156 104° East 525 604 37,000  Level Memphis Center
01:19PM 32.4692 -90.6453 103° East 525 604 37,000  Level Memphis Center
01:20PM 32.4381 -90.4731 102° East 530 610 37,000  Level Memphis Center
01:21PM 32.4025 -90.3056 104° East 530 610 37,000  Level Memphis Center
01:22PM 32.3689 -90.1358 103° East 525 604 37,000  Level Memphis Center
01:23PM 32.3353 -89.9664 103° East 525 604 37,000  Level Memphis Center
01:24PM 32.3011 -89.8019 104° East 525 604 37,000  Level Memphis Center
01:25PM 32.2669 -89.6350 104° East 525 604 37,000  Level Memphis Center
01:26PM 32.2325 -89.4658 103° East 525 604 37,000  Level Memphis Center
01:27PM 32.1997 -89.3017 103° East 525 604 37,000  Level Memphis Center
01:28PM 32.1669 -89.1500 104° East 525 604 37,000  Level Memphis Center
01:30PM 32.0822 -88.7597 104° East 520 598 37,000  Level Atlanta Center
01:31PM 32.0486 -88.5939 103° East 520 598 37,000  Level Atlanta Center
01:32PM 32.0131 -88.4256 104° East 520 598 37,000  Level Atlanta Center
01:33PM 31.9792 -88.2647 104° East 520 598 37,000  Level Atlanta Center
01:35PM 31.9194 -88.0053 105° East 517 595 37,000  Level Jacksonville Center
01:36PM 31.8842 -87.8419 104° East 517 595 37,000  Level Jacksonville Center
01:37PM 31.8486 -87.6786 104° East 522 601 37,000  Level Jacksonville Center
01:38PM 31.8131 -87.5106 104° East 522 601 37,000  Level Jacksonville Center
01:39PM 31.7753 -87.3450 105° East 522 601 37,000  Level Jacksonville Center
01:40PM 31.7314 -87.1644 106° East 522 601 37,000  Level Jacksonville Center
01:41PM 31.6928 -86.9992 105° East 522 601 37,000  Level Jacksonville Center
01:42PM 31.6544 -86.8339 105° East 522 601 37,000  Level Jacksonville Center
01:43PM 31.6175 -86.6714 105° East 522 601 37,000  Level Jacksonville Center
01:44PM 31.5764 -86.5039 106° East 522 601 37,000  Level Jacksonville Center
01:45PM 31.5372 -86.3417 106° East 522 601 37,000  Level Jacksonville Center
01:46PM 31.4997 -86.1794 105° East 517 595 37,000  Level Jacksonville Center
01:47PM 31.4622 -86.0125 105° East 522 601 37,000  Level Jacksonville Center
01:48PM 31.4219 -85.8553 107° East 522 601 37,000  Level Jacksonville Center
01:49PM 31.3839 -85.6936 105° East 517 595 37,000  Level Jacksonville Center
01:50PM 31.3456 -85.5342 106° East 517 595 37,000  Level Jacksonville Center
01:51PM 31.3094 -85.3678 104° East 517 595 37,000  Level Jacksonville Center
01:52PM 31.2686 -85.2064 106° East 517 595 37,000  Level Jacksonville Center
01:53PM 31.2275 -85.0475 107° East 517 595 37,000  Level Jacksonville Center
01:54PM 31.1883 -84.8911 106° East 517 595 37,000  Level Jacksonville Center
01:55PM 31.1489 -84.7300 106° East 512 589 37,000  Level Jacksonville Center
02:00PM 30.9590 -83.9640 106° East 494 568 37,000 -300 Level FlightAware
02:01PM 30.9150 -83.7960 107° East 514 592 35,300 -1,260 Descending FlightAware
02:02PM 30.9040 -83.6870 97° East 516 594 34,800 -420 Descending FlightAware
02:02PM 30.8950 -83.5930 96° East 516 594 34,800 -1,860 Level FlightAware
02:03PM 30.9050 -83.6660 279° West 514 592 32,200 -1,860 Descending FlightAware
02:04PM 30.8990 -83.5720 94° East 514 592 32,200  Level FlightAware
02:04PM 30.8930 -83.4780 94° East 514 592 32,200  Level FlightAware
02:05PM 30.8880 -83.3840 94° East 514 592 32,200  Level FlightAware
02:06PM 30.8810 -83.2670 94° East 514 592 32,200  Level FlightAware
02:07PM 30.8750 -83.1730 94° East 514 592 32,200  Level FlightAware
02:07PM 30.8690 -83.0790 94° East 514 592 32,200  Level FlightAware
02:08PM 30.8640 -82.9850 94° East 514 592 32,200  Level FlightAware
02:09PM 30.8580 -82.8910 94° East 514 592 32,200  Level FlightAware
02:09PM 30.8510 -82.7730 94° East 514 592 32,200  Level FlightAware
02:10PM 30.8450 -82.6790 94° East 514 592 32,200  Level FlightAware
02:11PM 30.8400 -82.5850 94° East 514 592 32,200  Level FlightAware
02:11PM 30.8340 -82.4910 94° East 514 592 32,200  Level FlightAware
02:12PM 30.8280 -82.3980 94° East 514 592 32,200 -1,920 Level FlightAware
02:15PM 29.8250 -82.3820 179° South 411 473 25,000 -1,920 Descending FlightAware
02:16PM 29.7530 -82.3470 157° South 412 474 25,000 -420 Level FlightAware
02:17PM 29.6620 -82.3040 158° South 404 465 24,400 -1,260 Descending FlightAware
02:18PM 29.5800 -82.2640 157° South 403 464 22,900 -1,320 Descending FlightAware
02:18PM 29.5240 -82.2370 157° South 401 461 22,700 -180 Descending FlightAware
02:19PM 29.4660 -82.2080 156° South 401 461 22,700 -2,340 Level FlightAware
02:20PM 29.3690 -82.1630 158° South 381 438 19,200 -3,000 Descending FlightAware
02:20PM 29.3060 -82.1320 157° South 370 426 18,200 -1,620 Descending FlightAware
02:21PM 29.2410 -82.1020 158° South 363 418 17,100 -1,680 Descending FlightAware
02:22PM 29.1740 -82.0700 157° South 355 409 15,900 -1,680 Descending FlightAware
02:23PM 29.0900 -82.0300 157° South 344 396 14,300 -1,620 Descending FlightAware
02:23PM 29.0450 -82.0080 157° South 338 389 13,500 -1,560 Descending FlightAware
02:24PM 28.9580 -81.9670 158° South 325 374 11,900 -1,260 Descending FlightAware
02:25PM 28.8940 -81.9360 157° South 309 356 11,300 -720 Descending FlightAware
02:25PM 28.8780 -81.9210 141° Southeast 316 364 11,200 -480 Descending FlightAware
02:26PM 28.8490 -81.8720 124° Southeast 313 360 10,900 -1,080 Descending FlightAware
02:26PM 28.8230 -81.8260 123° Southeast 312 359 10,000 -900 Descending FlightAware
02:27PM 28.8050 -81.7950 124° Southeast 312 359 10,000 -1,440 Level FlightAware
02:28PM 28.7460 -81.6770 120° Southeast 295 339 7,400 -1,560 Descending FlightAware
02:29PM 28.7470 -81.6440 88° East 279 321 7,300 -240 Descending FlightAware
02:29PM 28.7510 -81.5970 84° East 252 290 7,200 -120 Descending FlightAware
02:30PM 28.7540 -81.5570 85° East 240 276 7,200 -120 Level FlightAware
02:30PM 28.7560 -81.5180 87° East 241 277 7,100 -480 Descending FlightAware
02:31PM 28.7590 -81.4880 83° East 244 281 6,800 -900 Descending FlightAware
02:31PM 28.7600 -81.4670 87° East 240 276 6,500 -900 Descending FlightAware
02:31PM 28.7620 -81.4360 86° East 234 269 6,200 -1,020 Descending FlightAware
02:32PM 28.7600 -81.3980 93° East 235 270 5,600 -1,200 Descending FlightAware
02:32PM 28.7540 -81.3630 101° East 236 272 5,000 -1,200 Descending FlightAware
02:32PM 28.7450 -81.3470 123° Southeast 227 261 4,700 -1,200 Descending FlightAware
02:33PM 28.7360 -81.3400 146° Southeast 230 265 4,500 -960 Descending FlightAware
02:33PM 28.7230 -81.3330 155° Southeast 226 260 4,300 -480 Descending FlightAware
02:33PM 28.6980 -81.3300 174° South 224 258 4,200 -120 Descending FlightAware
02:34PM 28.6680 -81.3290 178° South 232 267 4,200 -180 Level FlightAware
02:34PM 28.6530 -81.3290 180° South 233 268 4,100 -960 Descending FlightAware
02:35PM 28.6180 -81.3290 180° South 229 264 3,500 -1,140 Descending FlightAware
02:35PM 28.5920 -81.3280 178° South 211 243 3,000 -1,020 Descending FlightAware
02:36PM 28.5590 -81.3280 180° South 195 224 2,400 -1,020 Descending FlightAware
02:36PM 28.5370 -81.3280 180° South 166 191 2,000 -1,080 Descending FlightAware
02:36PM 28.5180 -81.3280 180° South 145 167 1,600 -840 Descending FlightAware
02:37PM 28.5060 -81.3280 180° South 145 167 1,400 -720 Descending FlightAware
02:38PM 28.4720 -81.3270 179° South 132 152 800 -780 Descending FlightAware
02:38PM 28.4630 -81.3270 180° South 134 154 600 -720 Descending FlightAware
02:38PM 28.4500 -81.3270 180° South 131 151 400 -600 Descending FlightAware